createdAt,value
2023-12-02T00:01:17.601Z,2.40
2023-12-02T00:06:10.041Z,2.30
2023-12-02T00:11:01.804Z,2.50
2023-12-02T00:15:53.524Z,2.60
2023-12-02T00:20:45.234Z,2.40
2023-12-02T00:25:36.944Z,2.40
2023-12-02T00:30:28.703Z,2.50
2023-12-02T00:35:20.501Z,2.40
2023-12-02T00:40:12.335Z,2.50
2023-12-02T00:45:04.624Z,2.40
2023-12-02T00:49:56.473Z,2.30
2023-12-02T00:54:48.222Z,2.20
2023-12-02T00:59:39.963Z,2.20
2023-12-02T01:04:31.710Z,2.10
2023-12-02T01:09:23.726Z,2.10
2023-12-02T01:14:15.532Z,2.10
2023-12-02T01:19:07.280Z,2.10
2023-12-02T01:23:59.141Z,2.20
2023-12-02T01:28:50.890Z,2.20
2023-12-02T01:33:42.690Z,2.20
2023-12-02T01:38:34.442Z,2.20
2023-12-02T01:43:27.851Z,2.20
2023-12-02T01:48:29.936Z,2.10
2023-12-02T01:53:22.146Z,2.10
2023-12-02T01:58:14.187Z,2.20
2023-12-02T02:03:05.943Z,2.20
2023-12-02T02:07:57.641Z,2.20
2023-12-02T02:12:49.487Z,2.20
2023-12-02T02:17:41.727Z,2.20
2023-12-02T02:22:33.515Z,2.20
2023-12-02T02:27:25.244Z,2.30
2023-12-02T02:32:16.956Z,2.20
2023-12-02T02:37:09.337Z,2.20
2023-12-02T02:42:07.058Z,2.20
2023-12-02T02:46:58.824Z,2.20
2023-12-02T02:51:50.541Z,2.20
2023-12-02T02:56:44.137Z,2.20
2023-12-02T03:01:35.992Z,2.20
2023-12-02T03:06:27.848Z,2.20
2023-12-02T03:11:20.283Z,2.20
2023-12-02T03:16:12.069Z,2.30
2023-12-02T03:21:03.939Z,2.20
2023-12-02T03:25:55.715Z,2.00
2023-12-02T03:30:47.518Z,2.00
2023-12-02T03:35:39.815Z,2.00
2023-12-02T03:40:31.539Z,2.10
2023-12-02T03:45:23.262Z,2.20
2023-12-02T03:50:17.905Z,2.20
2023-12-02T03:55:10.066Z,2.10
2023-12-02T04:00:11.948Z,2.00
2023-12-02T04:05:04.072Z,2.00
2023-12-02T04:09:55.780Z,1.90
2023-12-02T04:14:47.483Z,1.90
2023-12-02T04:19:39.221Z,1.90
2023-12-02T04:24:31.026Z,1.80
2023-12-02T04:29:22.813Z,1.90
2023-12-02T04:34:15.631Z,1.90
2023-12-02T04:39:10.897Z,2.00
2023-12-02T04:44:02.622Z,2.00
2023-12-02T04:48:54.486Z,2.10
2023-12-02T04:53:46.341Z,2.10
2023-12-02T05:03:44.257Z,2.10
2023-12-02T05:08:36.064Z,2.20
2023-12-02T05:13:27.765Z,2.20
2023-12-02T05:18:19.631Z,2.30
2023-12-02T05:23:11.367Z,2.10
2023-12-02T05:28:03.613Z,2.20
2023-12-02T05:32:55.402Z,2.10
2023-12-02T05:37:47.733Z,2.10
2023-12-02T05:42:39.570Z,2.00
2023-12-02T05:47:31.348Z,1.80
2023-12-02T05:52:23.074Z,1.70
2023-12-02T05:57:14.848Z,1.60
2023-12-02T06:02:06.620Z,1.50
2023-12-02T06:06:58.423Z,1.50
2023-12-02T06:11:50.125Z,1.50
2023-12-02T06:16:41.832Z,1.40
2023-12-02T06:21:33.575Z,1.50
2023-12-02T06:26:25.310Z,1.60
2023-12-02T06:31:18.293Z,1.80
2023-12-02T06:36:10.836Z,1.80
2023-12-02T06:41:03.899Z,1.80
2023-12-02T06:45:55.942Z,1.80
2023-12-02T06:50:47.636Z,1.90
2023-12-02T06:55:39.356Z,1.80
2023-12-02T07:00:31.103Z,1.80
2023-12-02T07:05:22.853Z,2.00
2023-12-02T07:10:14.730Z,1.80
2023-12-02T07:15:07.808Z,1.80
2023-12-02T07:20:00.260Z,1.60
2023-12-02T07:24:51.985Z,1.70
2023-12-02T07:34:39.741Z,1.60
2023-12-02T07:39:31.469Z,1.70
2023-12-02T07:44:23.197Z,1.70
2023-12-02T07:49:14.971Z,1.90
2023-12-02T07:54:06.670Z,1.90
2023-12-02T07:58:58.425Z,2.00
2023-12-02T08:03:50.230Z,2.10
2023-12-02T08:08:41.951Z,2.10
2023-12-02T08:13:33.717Z,2.10
2023-12-02T08:18:25.462Z,2.20
2023-12-02T08:23:17.199Z,2.20
2023-12-02T08:28:08.913Z,2.00
2023-12-02T08:33:00.670Z,2.10
2023-12-02T08:37:52.494Z,1.80
2023-12-02T08:42:44.243Z,1.90
2023-12-02T08:47:35.990Z,1.70
2023-12-02T08:52:27.758Z,1.70
2023-12-02T08:57:19.589Z,1.70
2023-12-02T09:02:12.072Z,1.70
2023-12-02T09:07:04.994Z,1.80
2023-12-02T09:11:56.867Z,1.90
2023-12-02T09:16:48.701Z,2.00
2023-12-02T09:21:43.471Z,2.10
2023-12-02T09:26:41.897Z,2.10
2023-12-02T09:31:33.986Z,2.10
2023-12-02T09:36:42.727Z,2.20
2023-12-02T09:41:51.096Z,2.30
2023-12-02T09:47:03.112Z,2.40
2023-12-02T09:52:28.940Z,2.40
2023-12-02T09:58:17.113Z,2.50
2023-12-02T10:03:37.223Z,2.50
2023-12-02T10:09:01.154Z,2.60
2023-12-02T10:14:01.664Z,2.60
2023-12-02T10:18:58.915Z,2.60
2023-12-02T10:24:07.917Z,2.50
2023-12-02T10:29:13.224Z,2.50
2023-12-02T10:34:27.234Z,2.50
2023-12-02T10:39:45.177Z,2.40
2023-12-02T10:44:39.020Z,2.50
2023-12-02T10:49:32.356Z,2.40
2023-12-02T10:54:29.334Z,2.30
2023-12-02T10:59:25.219Z,2.30
2023-12-02T11:04:54.256Z,2.40
2023-12-02T11:10:05.591Z,2.50
2023-12-02T11:15:10.594Z,2.50
2023-12-02T11:20:23.305Z,2.50
2023-12-02T11:25:41.070Z,2.60
2023-12-02T11:31:12.350Z,2.60
2023-12-02T11:36:20.364Z,2.40
2023-12-02T11:41:24.479Z,2.40
2023-12-02T11:46:23.314Z,2.50
2023-12-02T11:51:37.147Z,2.70
2023-12-02T11:56:28.969Z,2.70
2023-12-02T12:01:57.507Z,2.80
2023-12-02T12:07:28.718Z,2.80
2023-12-02T12:12:23.827Z,2.80
2023-12-02T12:17:15.630Z,2.60
2023-12-02T12:22:07.389Z,2.60
2023-12-02T12:26:59.224Z,2.60
2023-12-02T12:31:50.971Z,2.40
2023-12-02T12:36:44.655Z,2.30
2023-12-02T12:41:40.297Z,2.20
2023-12-02T12:46:33.057Z,2.10
2023-12-02T12:51:30.282Z,2.10
2023-12-02T12:56:40.452Z,1.90
2023-12-02T13:01:34.613Z,1.70
2023-12-02T13:06:43.993Z,1.60
2023-12-02T13:12:27.883Z,1.60
2023-12-02T13:17:21.145Z,1.70
2023-12-02T13:22:15.307Z,1.80
2023-12-02T13:27:40.884Z,1.70
2023-12-02T13:32:40.180Z,1.50
2023-12-02T13:37:43.829Z,1.30
2023-12-02T13:42:39.461Z,1.20
2023-12-02T13:48:09.515Z,1.10
2023-12-02T13:53:33.564Z,1.10
2023-12-02T13:58:40.346Z,1.30
2023-12-02T14:04:02.213Z,1.40
2023-12-02T14:08:58.422Z,1.50
2023-12-02T14:14:23.112Z,1.60
2023-12-02T14:19:25.200Z,1.70
2023-12-02T14:24:31.503Z,1.70
2023-12-02T14:30:06.068Z,1.70
2023-12-02T14:35:43.882Z,1.70
2023-12-02T14:41:01.952Z,1.70
2023-12-02T14:45:58.724Z,1.70
2023-12-02T14:50:54.832Z,1.40
2023-12-02T14:55:46.657Z,1.40
2023-12-02T15:00:42.119Z,1.30
2023-12-02T15:05:33.942Z,1.30
2023-12-02T15:10:34.249Z,1.30
2023-12-02T15:15:35.105Z,1.30
2023-12-02T15:20:27.189Z,1.20
2023-12-02T15:25:18.919Z,1.20
2023-12-02T15:30:14.135Z,1.20
2023-12-02T15:35:06.962Z,1.20
2023-12-02T15:39:58.750Z,1.20
2023-12-02T15:44:50.589Z,1.30
2023-12-02T15:49:42.917Z,1.30
2023-12-02T15:54:36.544Z,1.00
2023-12-02T15:59:30.092Z,0.90
2023-12-02T16:04:23.306Z,0.80
2023-12-02T16:09:23.891Z,0.70
2023-12-02T16:14:16.877Z,0.70
2023-12-02T16:19:08.736Z,0.70
2023-12-02T16:24:01.105Z,0.80
2023-12-02T16:28:54.041Z,0.70
2023-12-02T16:33:46.730Z,0.60
2023-12-02T16:38:41.449Z,0.60
2023-12-02T16:43:33.470Z,0.70
2023-12-02T16:48:27.385Z,0.80
2023-12-02T16:53:25.443Z,0.90
2023-12-02T16:58:17.191Z,0.80
2023-12-02T17:03:10.667Z,0.80
2023-12-02T17:08:26.134Z,0.80
2023-12-02T17:13:24.983Z,0.70
2023-12-02T17:18:34.941Z,0.80
2023-12-02T17:23:30.763Z,0.90
2023-12-02T17:28:23.121Z,0.90
2023-12-02T17:33:14.890Z,0.70
2023-12-02T17:38:06.769Z,0.60
2023-12-02T17:42:58.509Z,0.50
2023-12-02T17:47:50.412Z,0.50
2023-12-02T17:52:44.104Z,0.50
2023-12-02T17:57:35.904Z,0.40
2023-12-02T18:02:27.643Z,0.40
2023-12-02T18:07:19.382Z,0.40
2023-12-02T18:12:11.177Z,0.30
2023-12-02T18:17:02.988Z,0.30
2023-12-02T18:21:54.717Z,0.30
2023-12-02T18:26:46.739Z,0.20
2023-12-02T18:31:39.782Z,0.30
2023-12-02T18:36:31.540Z,0.20
2023-12-02T18:41:23.301Z,0.20
2023-12-02T18:46:15.026Z,0.10
2023-12-02T18:51:07.037Z,0.10
2023-12-02T18:55:58.791Z,0.10
2023-12-02T19:00:50.595Z,0.00
2023-12-02T19:05:42.341Z,0.00
2023-12-02T19:10:34.958Z,0.00
2023-12-02T19:15:27.061Z,0.00
2023-12-02T19:20:20.576Z,0.00
2023-12-02T19:25:12.373Z,-0.10
2023-12-02T19:30:04.710Z,-0.10
2023-12-02T19:34:56.574Z,-0.20
2023-12-02T19:39:48.290Z,-0.30
2023-12-02T19:44:40.008Z,-0.40
2023-12-02T19:49:32.377Z,-0.50
2023-12-02T19:54:24.621Z,-0.60
2023-12-02T19:59:20.135Z,-0.70
2023-12-02T20:04:12.321Z,-0.80
2023-12-02T20:09:04.712Z,-0.90
2023-12-02T20:13:57.445Z,-1.00
2023-12-02T20:18:49.246Z,-1.10
2023-12-02T20:23:41.055Z,-1.20
2023-12-02T20:28:33.212Z,-1.30
2023-12-02T20:33:25.145Z,-1.40
2023-12-02T20:38:16.948Z,-1.50
2023-12-02T20:43:10.442Z,-1.50
2023-12-02T20:48:02.329Z,-1.50
2023-12-02T20:52:54.098Z,-1.40
2023-12-02T20:57:45.834Z,-1.40
2023-12-02T21:02:37.559Z,-1.40
2023-12-02T21:07:29.389Z,-1.30
2023-12-02T21:12:21.151Z,-1.20
2023-12-02T21:17:12.901Z,-1.10
2023-12-02T21:22:04.605Z,-0.80
2023-12-02T21:26:56.333Z,-0.70
2023-12-02T21:31:48.067Z,-0.90
2023-12-02T21:36:39.906Z,-0.90
2023-12-02T21:41:33.044Z,-0.90
2023-12-02T21:46:28.800Z,-0.80
2023-12-02T21:51:28.450Z,-0.80
2023-12-02T21:56:20.341Z,-0.80
2023-12-02T22:01:18.250Z,-0.70
2023-12-02T22:06:38.706Z,-0.60
2023-12-02T22:11:43.466Z,-0.50
2023-12-02T22:16:36.462Z,-0.50
2023-12-02T22:21:34.228Z,-0.50
2023-12-02T22:26:32.184Z,-0.50
2023-12-02T22:31:24.566Z,-0.50
2023-12-02T22:36:16.428Z,-0.50
2023-12-02T22:41:09.559Z,-0.50
2023-12-02T22:46:01.259Z,-0.50
2023-12-02T22:50:54.351Z,-0.50
2023-12-02T22:55:59.578Z,-0.50
2023-12-02T23:11:07.772Z,-0.40
2023-12-02T23:16:28.423Z,-0.40
2023-12-02T23:21:20.342Z,-0.40
2023-12-02T23:26:15.021Z,-0.50
2023-12-02T23:31:07.724Z,-0.40
2023-12-02T23:35:59.962Z,-0.40
2023-12-02T23:40:51.699Z,-0.50
2023-12-02T23:45:43.495Z,-0.40
2023-12-02T23:50:35.238Z,-0.40
2023-12-02T23:55:26.950Z,-0.40
